createdAt,value
2023-03-15T00:00:33.403Z,997.77
2023-03-15T00:01:33.394Z,997.75
2023-03-15T00:02:33.434Z,997.78
2023-03-15T00:03:33.486Z,997.79
2023-03-15T00:04:33.374Z,997.76
2023-03-15T00:05:33.357Z,997.76
2023-03-15T00:06:33.328Z,997.79
2023-03-15T00:07:33.310Z,997.79
2023-03-15T00:08:33.331Z,997.81
2023-03-15T00:09:33.306Z,997.85
2023-03-15T00:10:33.279Z,997.84
2023-03-15T00:11:33.263Z,997.90
2023-03-15T00:12:33.255Z,997.97
2023-03-15T00:13:33.239Z,997.98
2023-03-15T00:14:33.239Z,998.00
2023-03-15T00:15:33.263Z,998.00
2023-03-15T00:16:33.197Z,998.00
2023-03-15T00:17:33.183Z,998.02
2023-03-15T00:18:33.178Z,998.06
2023-03-15T00:19:33.185Z,998.06
2023-03-15T00:20:33.146Z,998.04
2023-03-15T00:21:33.250Z,998.00
2023-03-15T00:22:33.128Z,997.96
2023-03-15T00:23:33.111Z,998.00
2023-03-15T00:24:33.108Z,998.00
2023-03-15T00:25:33.084Z,998.05
2023-03-15T00:26:33.068Z,998.01
2023-03-15T00:27:33.057Z,998.06
2023-03-15T00:28:33.045Z,998.12
2023-03-15T00:29:33.090Z,998.08
2023-03-15T00:30:33.026Z,998.10
2023-03-15T00:31:33.029Z,998.05
2023-03-15T00:32:33.049Z,998.07
2023-03-15T00:33:32.987Z,998.14
2023-03-15T00:34:32.984Z,998.10
2023-03-15T00:35:32.982Z,998.17
2023-03-15T00:36:32.954Z,998.16
2023-03-15T00:37:32.950Z,998.19
2023-03-15T00:38:32.925Z,998.17
2023-03-15T00:39:32.925Z,998.19
2023-03-15T00:40:32.897Z,998.23
2023-03-15T00:41:32.880Z,998.21
2023-03-15T00:42:32.866Z,998.22
2023-03-15T00:43:32.861Z,998.22
2023-03-15T00:44:32.859Z,998.27
2023-03-15T00:45:32.840Z,998.26
2023-03-15T00:46:32.867Z,998.26
2023-03-15T00:47:32.803Z,998.26
2023-03-15T00:48:32.808Z,998.31
2023-03-15T00:49:32.832Z,998.36
2023-03-15T00:50:32.766Z,998.30
2023-03-15T00:51:32.760Z,998.39
2023-03-15T00:52:32.740Z,998.46
2023-03-15T00:53:32.744Z,998.43
2023-03-15T00:54:32.717Z,998.45
2023-03-15T00:55:32.723Z,998.47
2023-03-15T00:56:32.696Z,998.51
2023-03-15T00:57:32.683Z,998.49
2023-03-15T00:58:32.668Z,998.54
2023-03-15T00:59:32.655Z,998.51
2023-03-15T01:00:32.662Z,998.62
2023-03-15T01:01:32.651Z,998.66
2023-03-15T01:02:32.671Z,998.64
2023-03-15T01:03:34.397Z,998.61
2023-03-15T01:04:32.586Z,998.65
2023-03-15T01:05:32.615Z,998.67
2023-03-15T01:06:32.563Z,998.68
2023-03-15T01:07:32.552Z,998.67
2023-03-15T01:08:32.538Z,998.73
2023-03-15T01:09:32.557Z,998.70
2023-03-15T01:10:32.535Z,998.71
2023-03-15T01:11:32.504Z,998.73
2023-03-15T01:12:32.485Z,998.71
2023-03-15T01:13:32.474Z,998.74
2023-03-15T01:14:32.464Z,998.71
2023-03-15T01:15:32.464Z,998.65
2023-03-15T01:16:34.066Z,998.72
2023-03-15T01:17:32.426Z,998.74
2023-03-15T01:18:32.408Z,998.73
2023-03-15T01:19:32.399Z,998.68
2023-03-15T01:20:32.427Z,998.69
2023-03-15T01:21:32.385Z,998.69
2023-03-15T01:22:32.379Z,998.65
2023-03-15T01:23:32.350Z,998.74
2023-03-15T01:24:32.339Z,998.74
2023-03-15T01:25:32.367Z,998.75
2023-03-15T01:26:32.311Z,998.76
2023-03-15T01:27:32.309Z,998.75
2023-03-15T01:28:32.284Z,998.74
2023-03-15T01:29:32.271Z,998.79
2023-03-15T01:30:32.274Z,998.82
2023-03-15T01:31:32.338Z,998.83
2023-03-15T01:32:32.268Z,998.80
2023-03-15T01:33:32.227Z,998.83
2023-03-15T01:34:32.207Z,998.87
2023-03-15T01:35:32.310Z,998.88
2023-03-15T01:36:32.184Z,998.85
2023-03-15T01:37:32.176Z,998.87
2023-03-15T01:38:32.174Z,998.90
2023-03-15T01:39:32.143Z,998.90
2023-03-15T01:40:32.170Z,998.97
2023-03-15T01:41:32.159Z,998.98
2023-03-15T01:42:32.109Z,999.01
2023-03-15T01:43:32.106Z,999.02
2023-03-15T01:44:32.079Z,999.00
2023-03-15T01:45:32.082Z,998.98
2023-03-15T01:46:32.103Z,999.03
2023-03-15T01:47:32.045Z,999.02
2023-03-15T01:48:32.027Z,999.01
2023-03-15T01:49:32.019Z,998.99
2023-03-15T01:50:32.040Z,999.07
2023-03-15T01:51:32.003Z,999.03
2023-03-15T01:52:31.988Z,999.04
2023-03-15T01:53:31.968Z,999.06
2023-03-15T01:54:31.949Z,999.10
2023-03-15T01:55:31.940Z,999.12
2023-03-15T01:56:31.950Z,999.07
2023-03-15T01:57:31.937Z,999.13
2023-03-15T01:58:31.918Z,999.09
2023-03-15T01:59:31.889Z,999.04
2023-03-15T02:00:31.998Z,999.11
2023-03-15T02:01:31.882Z,999.12
2023-03-15T02:02:31.899Z,999.14
2023-03-15T02:03:31.843Z,999.16
2023-03-15T02:04:31.827Z,999.12
2023-03-15T02:05:31.816Z,999.15
2023-03-15T02:06:31.812Z,999.10
2023-03-15T02:07:31.786Z,999.10
2023-03-15T02:08:31.773Z,999.12
2023-03-15T02:09:31.764Z,999.12
2023-03-15T02:10:31.754Z,999.13
2023-03-15T02:11:31.764Z,999.16
2023-03-15T02:12:31.726Z,999.17
2023-03-15T02:13:31.734Z,999.24
2023-03-15T02:14:31.705Z,999.25
2023-03-15T02:15:31.686Z,999.28
2023-03-15T02:16:31.748Z,999.33
2023-03-15T02:17:31.666Z,999.32
2023-03-15T02:18:31.644Z,999.35
2023-03-15T02:19:31.633Z,999.31
2023-03-15T02:20:31.622Z,999.38
2023-03-15T02:21:31.624Z,999.34
2023-03-15T02:22:31.601Z,999.36
2023-03-15T02:23:31.586Z,999.35
2023-03-15T02:24:31.572Z,999.42
2023-03-15T02:25:31.556Z,999.42
2023-03-15T02:26:31.563Z,999.39
2023-03-15T02:27:31.572Z,999.46
2023-03-15T02:28:31.518Z,999.44
2023-03-15T02:29:31.532Z,999.45
2023-03-15T02:30:31.496Z,999.41
2023-03-15T02:31:31.560Z,999.45
2023-03-15T02:32:31.498Z,999.38
2023-03-15T02:33:31.462Z,999.35
2023-03-15T02:34:31.461Z,999.39
2023-03-15T02:35:31.445Z,999.32
2023-03-15T02:36:31.439Z,999.41
2023-03-15T02:37:31.407Z,999.34
2023-03-15T02:38:31.389Z,999.37
2023-03-15T02:39:31.381Z,999.36
2023-03-15T02:40:31.372Z,999.40
2023-03-15T02:41:31.365Z,999.40
2023-03-15T02:42:31.344Z,999.40
2023-03-15T02:43:31.331Z,999.46
2023-03-15T02:44:31.337Z,999.48
2023-03-15T02:45:31.317Z,999.51
2023-03-15T02:46:31.312Z,999.53
2023-03-15T02:47:31.281Z,999.53
2023-03-15T02:48:31.266Z,999.48
2023-03-15T02:49:31.253Z,999.50
2023-03-15T02:50:31.253Z,999.49
2023-03-15T02:51:31.248Z,999.52
2023-03-15T02:52:31.224Z,999.53
2023-03-15T02:53:31.203Z,999.58
2023-03-15T02:54:31.188Z,999.56
2023-03-15T02:55:31.175Z,999.54
2023-03-15T02:56:31.191Z,999.53
2023-03-15T02:57:31.166Z,999.55
2023-03-15T02:58:31.142Z,999.57
2023-03-15T02:59:31.126Z,999.54
2023-03-15T03:00:31.121Z,999.52
2023-03-15T03:01:31.306Z,999.54
2023-03-15T03:02:31.112Z,999.59
2023-03-15T03:03:31.074Z,999.58
2023-03-15T03:04:31.071Z,999.62
2023-03-15T03:05:31.053Z,999.63
2023-03-15T03:06:31.057Z,999.64
2023-03-15T03:07:31.042Z,999.66
2023-03-15T03:08:31.019Z,999.67
2023-03-15T03:09:31.007Z,999.73
2023-03-15T03:10:30.982Z,999.80
2023-03-15T03:11:30.978Z,999.82
2023-03-15T03:12:30.979Z,999.78
2023-03-15T03:13:30.944Z,999.83
2023-03-15T03:14:30.936Z,999.72
2023-03-15T03:15:30.924Z,999.82
2023-03-15T03:16:30.980Z,999.83
2023-03-15T03:17:30.931Z,999.90
2023-03-15T03:18:30.887Z,999.84
2023-03-15T03:19:30.881Z,999.72
2023-03-15T03:20:30.857Z,999.76
2023-03-15T03:21:30.840Z,999.78
2023-03-15T03:22:30.860Z,999.84
2023-03-15T03:23:30.818Z,999.82
2023-03-15T03:24:30.802Z,999.79
2023-03-15T03:25:30.788Z,999.91
2023-03-15T03:26:30.774Z,999.83
2023-03-15T03:27:30.774Z,999.90
2023-03-15T03:28:30.755Z,999.85
2023-03-15T03:29:30.735Z,999.86
2023-03-15T03:30:30.748Z,999.90
2023-03-15T03:31:30.710Z,999.88
2023-03-15T03:32:30.779Z,999.91
2023-03-15T03:33:30.709Z,999.94
2023-03-15T03:34:30.677Z,999.97
2023-03-15T03:35:30.667Z,1000.00
2023-03-15T03:36:30.648Z,999.98
2023-03-15T03:37:30.650Z,999.99
2023-03-15T03:38:30.617Z,999.98
2023-03-15T03:39:30.605Z,999.98
2023-03-15T03:40:30.594Z,999.99
2023-03-15T03:41:30.580Z,1000.06
2023-03-15T03:42:30.594Z,1000.01
2023-03-15T03:43:30.554Z,1000.02
2023-03-15T03:44:30.543Z,1000.01
2023-03-15T03:45:30.528Z,1000.01
2023-03-15T03:46:30.596Z,1000.04
2023-03-15T03:47:30.540Z,1000.07
2023-03-15T03:48:30.492Z,1000.13
2023-03-15T03:49:30.500Z,1000.21
2023-03-15T03:50:30.467Z,1000.22
2023-03-15T03:51:30.455Z,1000.20
2023-03-15T03:52:30.463Z,1000.29
2023-03-15T03:53:30.427Z,1000.24
2023-03-15T03:54:30.413Z,1000.29
2023-03-15T03:55:30.403Z,1000.27
2023-03-15T03:56:30.395Z,1000.27
2023-03-15T03:57:30.413Z,1000.30
2023-03-15T03:58:30.372Z,1000.34
2023-03-15T03:59:30.352Z,1000.36
2023-03-15T04:00:30.336Z,1000.31
2023-03-15T04:01:30.327Z,1000.37
2023-03-15T04:02:30.403Z,1000.38
2023-03-15T04:03:30.325Z,1000.39
2023-03-15T04:04:30.420Z,1000.40
2023-03-15T04:05:30.292Z,1000.46
2023-03-15T04:06:30.268Z,1000.43
2023-03-15T04:07:30.309Z,1000.48
2023-03-15T04:08:30.255Z,1000.49
2023-03-15T04:09:30.223Z,1000.49
2023-03-15T04:10:30.210Z,1000.49
2023-03-15T04:11:30.212Z,1000.55
2023-03-15T04:12:30.209Z,1000.60
2023-03-15T04:13:30.189Z,1000.62
2023-03-15T04:14:30.165Z,1000.64
2023-03-15T04:15:30.147Z,1000.62
2023-03-15T04:16:30.253Z,1000.65
2023-03-15T04:17:30.125Z,1000.63
2023-03-15T04:18:30.126Z,1000.63
2023-03-15T04:19:30.095Z,1000.64
2023-03-15T04:20:30.094Z,1000.65
2023-03-15T04:21:30.198Z,1000.67
2023-03-15T04:22:30.062Z,1000.70
2023-03-15T04:23:30.067Z,1000.68
2023-03-15T04:24:30.041Z,1000.70
2023-03-15T04:25:30.041Z,1000.71
2023-03-15T04:26:30.030Z,1000.69
2023-03-15T04:27:30.002Z,1000.65
2023-03-15T04:28:30.006Z,1000.64
2023-03-15T04:29:29.975Z,1000.70
2023-03-15T04:30:29.972Z,1000.67
2023-03-15T04:31:30.014Z,1000.66
2023-03-15T04:32:30.000Z,1000.74
2023-03-15T04:33:29.946Z,1000.67
2023-03-15T04:34:29.923Z,1000.66
2023-03-15T04:35:29.900Z,1000.68
2023-03-15T04:36:29.894Z,1000.69
2023-03-15T04:37:29.896Z,1000.72
2023-03-15T04:38:29.889Z,1000.75
2023-03-15T04:39:29.862Z,1000.78
2023-03-15T04:40:29.840Z,1000.80
2023-03-15T04:41:29.826Z,1000.72
2023-03-15T04:42:29.822Z,1000.71
2023-03-15T04:43:29.819Z,1000.69
2023-03-15T04:44:29.789Z,1000.75
2023-03-15T04:45:29.785Z,1000.76
2023-03-15T04:46:29.795Z,1000.68
2023-03-15T04:47:29.749Z,1000.72
2023-03-15T04:48:29.779Z,1000.67
2023-03-15T04:49:29.724Z,1000.69
2023-03-15T04:50:29.721Z,1000.67
2023-03-15T04:51:29.702Z,1000.67
2023-03-15T04:52:29.695Z,1000.69
2023-03-15T04:53:29.712Z,1000.67
2023-03-15T04:54:29.666Z,1000.71
2023-03-15T04:55:29.647Z,1000.72
2023-03-15T04:56:29.640Z,1000.71
2023-03-15T04:57:29.626Z,1000.76
2023-03-15T04:58:29.630Z,1000.70
2023-03-15T04:59:29.596Z,1000.75
2023-03-15T05:00:29.616Z,1000.72
2023-03-15T05:01:29.569Z,1000.75
2023-03-15T05:02:29.562Z,1000.80
2023-03-15T05:03:29.573Z,1000.98
2023-03-15T05:04:29.536Z,1000.99
2023-03-15T05:05:29.516Z,1000.96
2023-03-15T05:06:29.504Z,1000.91
2023-03-15T05:07:29.489Z,1000.88
2023-03-15T05:08:29.496Z,1000.88
2023-03-15T05:09:29.483Z,1000.88
2023-03-15T05:10:29.458Z,1000.84
2023-03-15T05:11:29.444Z,1000.87
2023-03-15T05:12:29.441Z,1000.85
2023-03-15T05:13:29.414Z,1000.81
2023-03-15T05:14:29.421Z,1000.82
2023-03-15T05:15:29.416Z,1000.83
2023-03-15T05:16:29.420Z,1000.86
2023-03-15T05:17:29.367Z,1000.84
2023-03-15T05:18:29.354Z,1000.88
2023-03-15T05:19:29.362Z,1000.87
2023-03-15T05:20:29.325Z,1000.88
2023-03-15T05:21:29.310Z,1000.90
2023-03-15T05:22:29.313Z,1000.94
2023-03-15T05:23:29.291Z,1000.88
2023-03-15T05:24:29.287Z,1000.87
2023-03-15T05:25:29.282Z,1000.88
2023-03-15T05:26:29.258Z,1000.87
2023-03-15T05:27:29.237Z,1000.93
2023-03-15T05:28:29.228Z,1000.92
2023-03-15T05:29:29.230Z,1000.92
2023-03-15T05:30:29.208Z,1000.84
2023-03-15T05:31:29.219Z,1000.89
2023-03-15T05:32:29.200Z,1000.91
2023-03-15T05:33:29.163Z,1000.86
2023-03-15T05:34:29.165Z,1000.87
2023-03-15T05:35:29.149Z,1000.91
2023-03-15T05:36:29.126Z,1000.87
2023-03-15T05:37:29.125Z,1000.82
2023-03-15T05:38:29.095Z,1000.84
2023-03-15T05:39:29.098Z,1000.81
2023-03-15T05:40:29.070Z,1000.84
2023-03-15T05:41:29.076Z,1000.83
2023-03-15T05:42:29.046Z,1000.84
2023-03-15T05:43:29.040Z,1000.80
2023-03-15T05:44:29.042Z,1000.86
2023-03-15T05:45:29.008Z,1000.92
2023-03-15T05:46:29.018Z,1000.93
2023-03-15T05:47:28.990Z,1000.93
2023-03-15T05:48:28.967Z,1000.95
2023-03-15T05:49:28.973Z,1000.95
2023-03-15T05:50:28.949Z,1000.96
2023-03-15T05:51:28.949Z,1001.00
2023-03-15T05:52:28.919Z,1000.98
2023-03-15T05:53:28.904Z,1000.97
2023-03-15T05:54:28.913Z,1001.02
2023-03-15T05:55:28.883Z,1001.01
2023-03-15T05:56:28.871Z,1001.04
2023-03-15T05:57:28.871Z,1001.04
2023-03-15T05:58:28.846Z,1001.16
2023-03-15T05:59:28.847Z,1001.17
2023-03-15T06:00:28.814Z,1001.18
2023-03-15T06:01:28.802Z,1001.18
2023-03-15T06:02:28.800Z,1001.17
2023-03-15T06:03:28.849Z,1001.18
2023-03-15T06:04:28.860Z,1001.14
2023-03-15T06:05:28.748Z,1001.17
2023-03-15T06:06:28.739Z,1001.18
2023-03-15T06:07:28.729Z,1001.22
2023-03-15T06:08:28.714Z,1001.21
2023-03-15T06:09:28.716Z,1001.20
2023-03-15T06:10:28.692Z,1001.24
2023-03-15T06:11:28.676Z,1001.21
2023-03-15T06:12:28.660Z,1001.24
2023-03-15T06:13:28.672Z,1001.24
2023-03-15T06:14:28.660Z,1001.25
2023-03-15T06:15:28.627Z,1001.26
2023-03-15T06:16:28.638Z,1001.28
2023-03-15T06:17:28.601Z,1001.24
2023-03-15T06:18:28.601Z,1001.30
2023-03-15T06:19:28.586Z,1001.26
2023-03-15T06:20:28.563Z,1001.35
2023-03-15T06:21:28.551Z,1001.39
2023-03-15T06:22:28.542Z,1001.38
2023-03-15T06:23:28.524Z,1001.37
2023-03-15T06:24:28.530Z,1001.37
2023-03-15T06:25:28.520Z,1001.32
2023-03-15T06:26:28.484Z,1001.33
2023-03-15T06:27:28.474Z,1001.39
2023-03-15T06:28:28.464Z,1001.41
2023-03-15T06:29:28.489Z,1001.39
2023-03-15T06:30:28.553Z,1001.35
2023-03-15T06:31:28.426Z,1001.33
2023-03-15T06:32:28.445Z,1001.28
2023-03-15T06:33:28.393Z,1001.22
2023-03-15T06:34:28.402Z,1001.28
2023-03-15T06:35:28.366Z,1001.34
2023-03-15T06:36:28.366Z,1001.33
2023-03-15T06:37:34.959Z,1001.35
2023-03-15T06:38:28.366Z,1001.32
2023-03-15T06:39:28.335Z,1001.37
2023-03-15T06:40:28.312Z,1001.41
2023-03-15T06:41:28.296Z,1001.36
2023-03-15T06:42:28.284Z,1001.40
2023-03-15T06:43:28.269Z,1001.47
2023-03-15T06:44:28.258Z,1001.42
2023-03-15T06:45:28.280Z,1001.41
2023-03-15T06:46:28.285Z,1001.38
2023-03-15T06:47:28.227Z,1001.50
2023-03-15T06:48:28.207Z,1001.50
2023-03-15T06:49:28.194Z,1001.45
2023-03-15T06:50:34.394Z,1001.45
2023-03-15T06:51:28.169Z,1001.54
2023-03-15T06:52:28.159Z,1001.49
2023-03-15T06:53:28.143Z,1001.54
2023-03-15T06:54:28.138Z,1001.53
2023-03-15T06:55:28.157Z,1001.56
2023-03-15T06:56:28.103Z,1001.54
2023-03-15T06:57:28.100Z,1001.55
2023-03-15T06:58:28.085Z,1001.51
2023-03-15T06:59:28.077Z,1001.52
2023-03-15T07:00:28.076Z,1001.52
2023-03-15T07:01:28.099Z,1001.57
2023-03-15T07:02:28.122Z,1001.58
2023-03-15T07:03:28.018Z,1001.57
2023-03-15T07:04:28.009Z,1001.60
2023-03-15T07:05:28.014Z,1001.61
2023-03-15T07:06:28.004Z,1001.68
2023-03-15T07:07:27.966Z,1001.71
2023-03-15T07:08:27.958Z,1001.70
2023-03-15T07:09:27.947Z,1001.74
2023-03-15T07:10:27.951Z,1001.74
2023-03-15T07:11:27.931Z,1001.72
2023-03-15T07:12:27.907Z,1001.68
2023-03-15T07:13:27.900Z,1001.74
2023-03-15T07:14:27.886Z,1001.78
2023-03-15T07:15:27.885Z,1001.78
2023-03-15T07:16:27.873Z,1001.76
2023-03-15T07:17:27.873Z,1001.76
2023-03-15T07:18:27.839Z,1001.75
2023-03-15T07:19:27.826Z,1001.78
2023-03-15T07:20:27.821Z,1001.79
2023-03-15T07:21:27.803Z,1001.80
2023-03-15T07:22:27.784Z,1001.75
2023-03-15T07:23:27.791Z,1001.79
2023-03-15T07:24:27.758Z,1001.79
2023-03-15T07:25:27.760Z,1001.83
2023-03-15T07:26:27.746Z,1001.77
2023-03-15T07:27:27.725Z,1001.89
2023-03-15T07:28:27.727Z,1001.80
2023-03-15T07:29:27.702Z,1001.86
2023-03-15T07:30:27.699Z,1001.86
2023-03-15T07:31:27.672Z,1001.85
2023-03-15T07:32:27.845Z,1001.85
2023-03-15T07:33:27.789Z,1001.87
2023-03-15T07:34:27.635Z,1001.94
2023-03-15T07:35:27.684Z,1001.92
2023-03-15T07:36:27.613Z,1001.94
2023-03-15T07:37:27.597Z,1001.94
2023-03-15T07:38:27.579Z,1001.97
2023-03-15T07:39:27.573Z,1002.00
2023-03-15T07:40:27.556Z,1001.97
2023-03-15T07:41:27.558Z,1002.02
2023-03-15T07:42:27.530Z,1002.08
2023-03-15T07:43:27.535Z,1002.08
2023-03-15T07:44:27.510Z,1002.13
2023-03-15T07:45:27.495Z,1002.13
2023-03-15T07:46:27.547Z,1002.21
2023-03-15T07:47:27.464Z,1002.25
2023-03-15T07:48:27.452Z,1002.23
2023-03-15T07:49:27.468Z,1002.15
2023-03-15T07:50:27.427Z,1002.20
2023-03-15T07:51:27.432Z,1002.24
2023-03-15T07:52:27.403Z,1002.22
2023-03-15T07:53:27.404Z,1002.24
2023-03-15T07:54:28.826Z,1002.18
2023-03-15T07:55:27.370Z,1002.24
2023-03-15T07:56:27.362Z,1002.28
2023-03-15T07:57:28.954Z,1002.24
2023-03-15T07:58:27.333Z,1002.24
2023-03-15T07:59:27.313Z,1002.25
2023-03-15T08:00:27.303Z,1002.24
2023-03-15T08:01:27.305Z,1002.26
2023-03-15T08:02:29.573Z,1002.27
2023-03-15T08:03:27.379Z,1002.29
2023-03-15T08:04:27.263Z,1002.32
2023-03-15T08:05:29.109Z,1002.31
2023-03-15T08:06:27.247Z,1002.34
2023-03-15T08:07:27.217Z,1002.32
2023-03-15T08:08:27.197Z,1002.34
2023-03-15T08:09:27.192Z,1002.33
2023-03-15T08:10:27.176Z,1002.32
2023-03-15T08:11:27.224Z,1002.36
2023-03-15T08:12:27.150Z,1002.36
2023-03-15T08:13:27.155Z,1002.38
2023-03-15T08:14:27.123Z,1002.34
2023-03-15T08:15:27.112Z,1002.34
2023-03-15T08:16:27.209Z,1002.31
2023-03-15T08:17:27.096Z,1002.35
2023-03-15T08:18:27.073Z,1002.36
2023-03-15T08:19:27.068Z,1002.25
2023-03-15T08:20:29.628Z,1002.32
2023-03-15T08:21:27.070Z,1002.30
2023-03-15T08:22:27.023Z,1002.36
2023-03-15T08:23:27.012Z,1002.39
2023-03-15T08:24:27.029Z,1002.41
2023-03-15T08:25:26.986Z,1002.39
2023-03-15T08:26:26.985Z,1002.36
2023-03-15T08:27:26.957Z,1002.37
2023-03-15T08:28:26.947Z,1002.41
2023-03-15T08:29:26.959Z,1002.36
2023-03-15T08:30:26.926Z,1002.39
2023-03-15T08:31:26.980Z,1002.43
2023-03-15T08:32:26.975Z,1002.46
2023-03-15T08:33:26.881Z,1002.52
2023-03-15T08:34:26.871Z,1002.49
2023-03-15T08:35:26.932Z,1002.48
2023-03-15T08:36:26.988Z,1002.45
2023-03-15T08:37:26.855Z,1002.46
2023-03-15T08:38:26.847Z,1002.47
2023-03-15T08:39:26.816Z,1002.45
2023-03-15T08:40:26.919Z,1002.44
2023-03-15T08:41:26.797Z,1002.47
2023-03-15T08:42:26.776Z,1002.47
2023-03-15T08:43:26.773Z,1002.47
2023-03-15T08:44:26.764Z,1002.48
2023-03-15T08:45:26.738Z,1002.52
2023-03-15T08:46:26.819Z,1002.55
2023-03-15T08:47:26.752Z,1002.51
2023-03-15T08:48:26.701Z,1002.51
2023-03-15T08:49:26.681Z,1002.56
2023-03-15T08:50:26.790Z,1002.56
2023-03-15T08:51:26.686Z,1002.58
2023-03-15T08:52:26.640Z,1002.62
2023-03-15T08:53:26.644Z,1002.62
2023-03-15T08:54:26.614Z,1002.63
2023-03-15T08:55:26.596Z,1002.57
2023-03-15T08:56:26.589Z,1002.60
2023-03-15T08:57:26.595Z,1002.64
2023-03-15T08:58:26.560Z,1002.66
2023-03-15T08:59:31.666Z,1002.63
2023-03-15T09:00:26.648Z,1002.62
2023-03-15T09:01:26.532Z,1002.63
2023-03-15T09:02:26.571Z,1002.73
2023-03-15T09:03:26.496Z,1002.77
2023-03-15T09:04:26.564Z,1002.72
2023-03-15T09:05:26.470Z,1002.75
2023-03-15T09:06:26.454Z,1002.73
2023-03-15T09:07:26.467Z,1002.79
2023-03-15T09:08:26.429Z,1002.80
2023-03-15T09:09:26.435Z,1002.83
2023-03-15T09:10:26.406Z,1002.84
2023-03-15T09:11:26.393Z,1002.80
2023-03-15T09:12:26.399Z,1002.86
2023-03-15T09:13:26.367Z,1002.81
2023-03-15T09:14:26.351Z,1002.84
2023-03-15T09:15:26.337Z,1002.83
2023-03-15T09:16:26.352Z,1002.87
2023-03-15T09:17:26.331Z,1002.87
2023-03-15T09:18:26.299Z,1002.85
2023-03-15T09:19:26.290Z,1002.86
2023-03-15T09:20:26.274Z,1002.92
2023-03-15T09:21:26.263Z,1002.88
2023-03-15T09:22:38.550Z,1002.88
2023-03-15T09:23:26.244Z,1002.94
2023-03-15T09:24:26.225Z,1002.95
2023-03-15T09:25:26.243Z,1002.95
2023-03-15T09:26:26.205Z,1002.99
2023-03-15T09:27:26.216Z,1003.00
2023-03-15T09:28:26.180Z,1002.99
2023-03-15T09:29:26.171Z,1003.03
2023-03-15T09:30:26.155Z,1003.01
2023-03-15T09:31:26.194Z,1003.03
2023-03-15T09:32:26.179Z,1003.04
2023-03-15T09:33:26.129Z,1003.03
2023-03-15T09:34:27.570Z,1003.04
2023-03-15T09:35:26.127Z,1003.06
2023-03-15T09:36:26.077Z,1003.07
2023-03-15T09:37:26.080Z,1003.08
2023-03-15T09:38:26.056Z,1003.04
2023-03-15T09:39:26.048Z,1003.11
2023-03-15T09:40:26.033Z,1003.07
2023-03-15T09:41:26.035Z,1003.10
2023-03-15T09:42:26.020Z,1003.10
2023-03-15T09:43:25.988Z,1003.10
2023-03-15T09:44:25.979Z,1003.09
2023-03-15T09:45:25.968Z,1003.17
2023-03-15T09:46:26.051Z,1003.14
2023-03-15T09:47:25.961Z,1003.17
2023-03-15T09:48:25.926Z,1003.20
2023-03-15T09:49:25.946Z,1003.16
2023-03-15T09:50:25.905Z,1003.21
2023-03-15T09:51:25.886Z,1003.19
2023-03-15T09:52:25.901Z,1003.21
2023-03-15T09:53:25.870Z,1003.22
2023-03-15T09:54:25.881Z,1003.22
2023-03-15T09:55:25.842Z,1003.29
2023-03-15T09:56:25.839Z,1003.20
2023-03-15T09:57:25.843Z,1003.26
2023-03-15T09:58:25.821Z,1003.20
2023-03-15T09:59:25.789Z,1003.31
2023-03-15T10:00:25.779Z,1003.30
2023-03-15T10:01:25.810Z,1003.34
2023-03-15T10:02:25.776Z,1003.36
2023-03-15T10:03:25.868Z,1003.34
2023-03-15T10:04:25.730Z,1003.38
2023-03-15T10:05:25.710Z,1003.32
2023-03-15T10:06:25.698Z,1003.35
2023-03-15T10:07:25.686Z,1003.38
2023-03-15T10:08:25.688Z,1003.35
2023-03-15T10:09:25.661Z,1003.33
2023-03-15T10:10:25.644Z,1003.26
2023-03-15T10:11:25.637Z,1003.22
2023-03-15T10:12:25.637Z,1003.24
2023-03-15T10:13:25.650Z,1003.31
2023-03-15T10:14:25.603Z,1003.29
2023-03-15T10:15:25.587Z,1003.25
2023-03-15T10:16:25.670Z,1003.28
2023-03-15T10:17:25.558Z,1003.27
2023-03-15T10:18:25.562Z,1003.36
2023-03-15T10:19:25.543Z,1003.31
2023-03-15T10:20:25.519Z,1003.32
2023-03-15T10:21:25.509Z,1003.38
2023-03-15T10:22:25.498Z,1003.39
2023-03-15T10:23:25.510Z,1003.32
2023-03-15T10:24:25.468Z,1003.35
2023-03-15T10:25:25.469Z,1003.31
2023-03-15T10:26:25.469Z,1003.33
2023-03-15T10:27:25.440Z,1003.33
2023-03-15T10:28:25.442Z,1003.35
2023-03-15T10:29:25.434Z,1003.34
2023-03-15T10:30:25.402Z,1003.34
2023-03-15T10:31:32.968Z,1003.32
2023-03-15T10:32:25.411Z,1003.36
2023-03-15T10:33:25.376Z,1003.34
2023-03-15T10:34:25.346Z,1003.35
2023-03-15T10:35:25.333Z,1003.42
2023-03-15T10:36:25.416Z,1003.43
2023-03-15T10:37:25.346Z,1003.45
2023-03-15T10:38:25.316Z,1003.40
2023-03-15T10:39:25.288Z,1003.40
2023-03-15T10:40:25.268Z,1003.46
2023-03-15T10:41:29.044Z,1003.47
2023-03-15T10:42:25.241Z,1003.41
2023-03-15T10:43:25.249Z,1003.41
2023-03-15T10:44:25.217Z,1003.40
2023-03-15T10:45:25.266Z,1003.35
2023-03-15T10:46:25.223Z,1003.34
2023-03-15T10:47:25.221Z,1003.39
2023-03-15T10:48:25.179Z,1003.32
2023-03-15T10:49:25.149Z,1003.29
2023-03-15T10:50:25.145Z,1003.32
2023-03-15T10:51:25.132Z,1003.29
2023-03-15T10:52:25.118Z,1003.28
2023-03-15T10:53:25.122Z,1003.28
2023-03-15T10:54:25.120Z,1003.34
2023-03-15T10:55:25.087Z,1003.33
2023-03-15T10:56:25.070Z,1003.25
2023-03-15T10:57:25.051Z,1003.31
2023-03-15T10:58:25.933Z,1003.24
2023-03-15T10:59:25.029Z,1003.27
2023-03-15T11:00:25.010Z,1003.23
2023-03-15T11:01:25.057Z,1003.25
2023-03-15T11:02:25.000Z,1003.24
2023-03-15T11:03:24.998Z,1003.26
2023-03-15T11:04:24.961Z,1003.31
2023-03-15T11:05:24.949Z,1003.28
2023-03-15T11:06:24.938Z,1003.24
2023-03-15T11:07:24.930Z,1003.30
2023-03-15T11:08:24.945Z,1003.32
2023-03-15T11:09:24.899Z,1003.29
2023-03-15T11:10:24.882Z,1003.34
2023-03-15T11:11:24.885Z,1003.35
2023-03-15T11:12:24.869Z,1003.33
2023-03-15T11:13:24.877Z,1003.39
2023-03-15T11:14:24.837Z,1003.39
2023-03-15T11:15:24.823Z,1003.36
2023-03-15T11:16:24.860Z,1003.42
2023-03-15T11:17:24.821Z,1003.45
2023-03-15T11:18:24.811Z,1003.45
2023-03-15T11:19:24.768Z,1003.44
2023-03-15T11:20:24.760Z,1003.46
2023-03-15T11:21:24.746Z,1003.44
2023-03-15T11:22:24.744Z,1003.48
2023-03-15T11:23:24.721Z,1003.44
2023-03-15T11:24:24.780Z,1003.44
2023-03-15T11:25:25.165Z,1003.45
2023-03-15T11:26:33.090Z,1003.50
2023-03-15T11:27:25.672Z,1003.47
2023-03-15T11:28:24.657Z,1003.54
2023-03-15T11:29:24.654Z,1003.53
2023-03-15T11:30:24.632Z,1003.59
2023-03-15T11:31:24.644Z,1003.54
2023-03-15T11:32:24.692Z,1003.55
2023-03-15T11:33:24.610Z,1003.56
2023-03-15T11:34:24.588Z,1003.50
2023-03-15T11:35:24.674Z,1003.57
2023-03-15T11:36:24.555Z,1003.52
2023-03-15T11:37:24.532Z,1003.68
2023-03-15T11:38:24.529Z,1003.67
2023-03-15T11:39:24.530Z,1003.59
2023-03-15T11:40:24.499Z,1003.52
2023-03-15T11:41:24.485Z,1003.46
2023-03-15T11:42:24.476Z,1003.38
2023-03-15T11:43:24.469Z,1003.45
2023-03-15T11:44:24.463Z,1003.50
2023-03-15T11:45:24.484Z,1003.50
2023-03-15T11:46:24.424Z,1003.54
2023-03-15T11:47:24.406Z,1003.48
2023-03-15T11:48:24.391Z,1003.52
2023-03-15T11:49:24.433Z,1003.52
2023-03-15T11:50:24.373Z,1003.56
2023-03-15T11:51:24.358Z,1003.69
2023-03-15T11:52:24.348Z,1003.62
2023-03-15T11:53:24.331Z,1003.68
2023-03-15T11:54:24.331Z,1003.66
2023-03-15T11:55:24.302Z,1003.63
2023-03-15T11:56:24.296Z,1003.51
2023-03-15T11:57:24.278Z,1003.53
2023-03-15T11:58:24.264Z,1003.90
2023-03-15T11:59:24.270Z,1003.53
2023-03-15T12:00:24.240Z,1003.56
2023-03-15T12:01:24.224Z,1003.93
2023-03-15T12:02:24.394Z,1003.86
2023-03-15T12:03:24.231Z,1003.87
2023-03-15T12:04:24.204Z,1003.86
2023-03-15T12:05:24.192Z,1003.89
2023-03-15T12:06:24.160Z,1003.83
2023-03-15T12:07:24.147Z,1003.89
2023-03-15T12:08:24.141Z,1003.79
2023-03-15T12:09:25.163Z,1003.57
2023-03-15T12:10:24.119Z,1003.61
2023-03-15T12:11:24.119Z,1003.48
2023-03-15T12:12:24.086Z,1003.84